Tuesday, May 03, 2016
10:38 UTC
  |  Log In   |  Register Free
Airport Search:

Mount Sterling-Montgomery County Airport
(KIOB)

Mount Sterling-Montgomery County Airport Diagram
No Airport Diagram Available

FAA data valid effective Mar 31 2016 - May 26 2016 (unless otherwise noted).

 
 
 
 
 
 
 
 
 
 
 
 
 
 
Current Aviation Weather for KIOB

Weather Summary


The most recent METAR observation for IOB was updated at: 12:55 UTC
METAR for KIOB is not available. Closest METAR is for KSYM
KIOB  (most recent observation was updatred at 31:01 UTC)
031015Z AUTO 32003KT 10SM SCT011 OVC039 12/11 A2991 RMK AO2

KSYM  (20.8 nm SW)   (most recent observation was updated at 31:01 UTC)
031010Z AUTO 00000KT 5SM BR OVC005 13/12 A2990 RMK AO2

KLEX  (29.6 nm NE)   (most recent observation was updated at 30:95 UTC)
030954Z 00000KT 10SM BKN034 OVC042 13/10 A2990 RMK AO2 SLP121 T01280100

TAF for KIOB is not available.
KSYM  (20.8 nm SW)   (most recent observation was updatred at 30:53 UTC)
030536Z 0306/0406 VRB03KT P6SM BKN028 FM030800 VRB03KT P6SM OVC035 FM031300 VRB03KT P6SM VCSH OVC035 FM032000 30006KT P6SM OVC035


KLEX  (29.6 nm NE)   (most recent observation was updatred at 30:92 UTC)
AMD 030928Z 0309/0406 33003KT 5SM BR SCT015 BKN025 FM031300 31006KT P6SM SCT025 BKN035 FM032100 29006KT P6SM BKN050


GlobalAir.com is loading additional information.
 Current Weather at IOB
54.0 F° (12.0 C°)

North winds at 0.0 mph
Pressure:
29.91 in
Humidity:
94%
Wind:
North at 0.0 mph
Dew Point:
51.8 F° (11.0 C°)
Visibility:
10.00 mi
IOB NOAA Radar




Find All Airport Services Find A Hotel Find A Rental Car Find A Golf Course Find A Restaurant $100 Hamburger



Airport Weather Forecast for KIOB

Translated METAR for KIOB (1015 UTC)
METAR:
KIOB 031015Z AUTO 32003KT 10SM SCT011 OVC039 12/11 A2991 RMK AO2
Conditions at:
KIOB (Mount Sterling-Montgomery County, KY) observed 1015 UTC 03 May 2016
Temperature:
12°C (53.6°F)
Dewpoint:
11°C (51.8°F) [RH = 93.6]
Pressure:
29.91 inches Hg (1012.9 mb)
Winds:
from the NW (320 degrees) at 3.5 mph (3 knots: 1.5 m/s)
Visibility:
10 mile(s)
Ceiling:
3,900 feet AGL
Clouds:
Scattered Clouds at 1,100 feet AGL
Overcast Skies at 3,900 feet AGL
Remarks:
site is un-manned

Translated TAF for KSYM (Morehead-Rowan County Clyde A Thomas Rgnl, KY) (0536 UTC)
TAF text:
KSYM 030536Z 0306/0406 VRB03KT P6SM BKN028
Forecast period:
Tuesday May 03 2016 06:00 UTC - Wednesday May 04 2016 06:00 UTC
Forecast type:
FROM: standard forecast or significant change
Winds:
variable wind direction at 3.5 mph (3 knots: 1.5 m/s)
Visibility:
6 or more mile(s) (9.7+ km)
Ceiling:
2,800 feet AGL
Clouds:
Broken Cloud Cover at 2,800 feet AGL
Weather:
no significant weather observed at this time
TAF text:
FM030800 VRB03KT P6SM OVC035
Forecast period:
Tuesday May 03 2016 08:00 UTC - Tuesday May 03 2016 13:00 UTC
Forecast type:
FROM: standard forecast or significant change
Winds:
variable wind direction at 3.5 mph (3 knots: 1.5 m/s)
Visibility:
6 or more mile(s) (9.7+ km)
Ceiling:
3,500 feet AGL
Clouds:
Overcast Skies at 3,500 feet AGL
Weather:
no significant weather observed at this time
TAF text:
FM031300 VRB03KT P6SM VCSH OVC035
Forecast period:
Tuesday May 03 2016 13:00 UTC - Tuesday May 03 2016 20:00 UTC
Forecast type:
FROM: standard forecast or significant change
Winds:
variable wind direction at 3.5 mph (3 knots: 1.5 m/s)
Visibility:
6 or more mile(s) (9.7+ km)
Ceiling:
3,500 feet AGL
Clouds:
Overcast Skies at 3,500 feet AGL
Weather:
Moderate In Vicinity Shower(s)
TAF text:
FM032000 30006KT P6SM OVC035
Forecast period:
Tuesday May 03 2016 20:00 UTC - Wednesday May 04 2016 06:00 UTC
Forecast type:
FROM: standard forecast or significant change
Winds:
from the WNW (300 degrees) at 6.9 mph (6 knots: 3.1 m/s)
Visibility:
6 or more mile(s) (9.7+ km)
Ceiling:
3,500 feet AGL
Clouds:
Overcast Skies at 3,500 feet AGL
Weather:
no significant weather observed at this time
FBO's on the Field
FBO Company Facility Photos Services Transportation Aviation Fuel Prices: Prices include tax
Catering Weather Repair Courtesy Rental Type 100LL JetA JetA+ MOGAS 8087
 
Kentucky Airmotive Inc

This FBO has not yet been rated
FS:Shell
Last Updated: Apr-24
Login to update fuel prices
SS:
Contact Kentucky Airmotive IncMore FBO Information
 
Add another FBO Facility Photos Catering Weather Repair Courtesy Rental Type 100LL JetA JetA+ MOGAS 8087
Services Transportation Aviation Fuel Prices: Prices include tax


model-print
model-print
model-print
model-print